Fostoria, Iowa
Current Conditions -  °F | °C
As of 8:08 PM on Saturday 22 Nov 2014 (Local Time) from KSPW Reporting Station
Haze Haze  
Wind Chill: 33°   Ceiling: 900
Heat Index: 41°   Visibility: 4mi
Dew Point: 39°   Wind: 15mph
Humidity: 93%   Direction: 180°S
Pressure: 29.54"   Gusts: NA
Location:  43.24°N, 95.16°W
Report Text: KSPW 230208Z AUTO 18013KT 4SM BR BKN009 05/04 A2954 RMK AO2 T00500039 TSNO
Loading
Personal Weather Stations






























Interactive Weather Map New forecast layout! Learn more

10-Day Weather Forecast

Advertisements
Track Severe Weather on mobile